sensor_id;sensor_type;location;lat;lon;timestamp;P1;durP1;ratioP1;P2;durP2;ratioP2
10651;SDS011;5374;42.742;23.266;2022-09-09T00:00:47;10.93;;;9.87;;
10651;SDS011;5374;42.742;23.266;2022-09-09T00:03:43;10.77;;;9.67;;
10651;SDS011;5374;42.742;23.266;2022-09-09T00:06:34;11.20;;;10.00;;
10651;SDS011;5374;42.742;23.266;2022-09-09T00:09:30;11.90;;;10.07;;
10651;SDS011;5374;42.742;23.266;2022-09-09T00:12:24;11.40;;;10.30;;
10651;SDS011;5374;42.742;23.266;2022-09-09T00:15:19;10.67;;;9.73;;
10651;SDS011;5374;42.742;23.266;2022-09-09T00:18:11;13.67;;;11.13;;
10651;SDS011;5374;42.742;23.266;2022-09-09T00:21:06;11.30;;;10.20;;
10651;SDS011;5374;42.742;23.266;2022-09-09T00:23:57;12.20;;;10.17;;
10651;SDS011;5374;42.742;23.266;2022-09-09T00:26:47;11.57;;;10.47;;
10651;SDS011;5374;42.742;23.266;2022-09-09T00:29:40;10.30;;;9.37;;
10651;SDS011;5374;42.742;23.266;2022-09-09T00:32:31;11.33;;;10.23;;
10651;SDS011;5374;42.742;23.266;2022-09-09T00:35:22;11.23;;;10.23;;
10651;SDS011;5374;42.742;23.266;2022-09-09T00:38:13;10.77;;;9.67;;
10651;SDS011;5374;42.742;23.266;2022-09-09T00:41:03;11.50;;;10.37;;
10651;SDS011;5374;42.742;23.266;2022-09-09T00:43:58;12.30;;;10.67;;
10651;SDS011;5374;42.742;23.266;2022-09-09T00:46:52;12.23;;;10.47;;
10651;SDS011;5374;42.742;23.266;2022-09-09T00:49:54;11.23;;;10.23;;
10651;SDS011;5374;42.742;23.266;2022-09-09T00:52:48;12.80;;;10.13;;
10651;SDS011;5374;42.742;23.266;2022-09-09T00:55:47;12.60;;;10.67;;
10651;SDS011;5374;42.742;23.266;2022-09-09T00:58:41;11.23;;;10.10;;
10651;SDS011;5374;42.742;23.266;2022-09-09T01:01:29;12.13;;;10.53;;
10651;SDS011;5374;42.742;23.266;2022-09-09T01:04:18;13.70;;;10.73;;
10651;SDS011;5374;42.742;23.266;2022-09-09T01:07:16;10.93;;;9.67;;
10651;SDS011;5374;42.742;23.266;2022-09-09T01:10:05;11.83;;;10.63;;
10651;SDS011;5374;42.742;23.266;2022-09-09T01:13:00;10.97;;;9.90;;
10651;SDS011;5374;42.742;23.266;2022-09-09T01:15:59;11.17;;;9.97;;
10651;SDS011;5374;42.742;23.266;2022-09-09T01:18:49;11.47;;;10.37;;
10651;SDS011;5374;42.742;23.266;2022-09-09T01:21:41;16.03;;;10.37;;
10651;SDS011;5374;42.742;23.266;2022-09-09T01:24:38;13.83;;;9.83;;
10651;SDS011;5374;42.742;23.266;2022-09-09T01:27:31;11.87;;;10.47;;
10651;SDS011;5374;42.742;23.266;2022-09-09T01:30:20;11.00;;;9.90;;
10651;SDS011;5374;42.742;23.266;2022-09-09T01:33:09;11.53;;;10.43;;
10651;SDS011;5374;42.742;23.266;2022-09-09T01:35:59;11.17;;;10.10;;
10651;SDS011;5374;42.742;23.266;2022-09-09T01:38:53;11.70;;;10.10;;
10651;SDS011;5374;42.742;23.266;2022-09-09T01:41:40;11.53;;;10.23;;
10651;SDS011;5374;42.742;23.266;2022-09-09T01:44:28;13.20;;;10.63;;
10651;SDS011;5374;42.742;23.266;2022-09-09T01:47:16;12.90;;;10.70;;
10651;SDS011;5374;42.742;23.266;2022-09-09T01:50:04;11.23;;;10.07;;
10651;SDS011;5374;42.742;23.266;2022-09-09T01:52:54;12.27;;;10.13;;
10651;SDS011;5374;42.742;23.266;2022-09-09T01:55:45;12.53;;;10.03;;
10651;SDS011;5374;42.742;23.266;2022-09-09T01:58:44;10.77;;;9.73;;
10651;SDS011;5374;42.742;23.266;2022-09-09T02:01:42;10.57;;;9.57;;
10651;SDS011;5374;42.742;23.266;2022-09-09T02:04:43;11.57;;;10.37;;
10651;SDS011;5374;42.742;23.266;2022-09-09T02:07:34;11.27;;;10.17;;
10651;SDS011;5374;42.742;23.266;2022-09-09T02:10:31;11.17;;;10.07;;
10651;SDS011;5374;42.742;23.266;2022-09-09T02:13:24;10.80;;;9.70;;
10651;SDS011;5374;42.742;23.266;2022-09-09T02:16:12;11.73;;;10.63;;
10651;SDS011;5374;42.742;23.266;2022-09-09T02:19:08;12.77;;;10.57;;
10651;SDS011;5374;42.742;23.266;2022-09-09T02:21:59;11.57;;;10.37;;
10651;SDS011;5374;42.742;23.266;2022-09-09T02:24:47;11.23;;;10.23;;
10651;SDS011;5374;42.742;23.266;2022-09-09T02:27:37;11.70;;;10.60;;
10651;SDS011;5374;42.742;23.266;2022-09-09T02:30:26;15.80;;;11.37;;
10651;SDS011;5374;42.742;23.266;2022-09-09T02:33:15;11.40;;;10.07;;
10651;SDS011;5374;42.742;23.266;2022-09-09T02:36:04;12.53;;;11.30;;
10651;SDS011;5374;42.742;23.266;2022-09-09T02:38:55;12.83;;;10.40;;
10651;SDS011;5374;42.742;23.266;2022-09-09T02:41:43;11.90;;;10.70;;
10651;SDS011;5374;42.742;23.266;2022-09-09T02:44:30;13.27;;;10.90;;
10651;SDS011;5374;42.742;23.266;2022-09-09T02:47:21;12.37;;;11.03;;
10651;SDS011;5374;42.742;23.266;2022-09-09T02:50:16;13.60;;;11.17;;
10651;SDS011;5374;42.742;23.266;2022-09-09T02:53:09;12.13;;;11.03;;
10651;SDS011;5374;42.742;23.266;2022-09-09T02:56:04;12.80;;;11.50;;
10651;SDS011;5374;42.742;23.266;2022-09-09T02:58:55;15.40;;;11.60;;
10651;SDS011;5374;42.742;23.266;2022-09-09T03:01:43;12.57;;;11.27;;
10651;SDS011;5374;42.742;23.266;2022-09-09T03:04:30;12.67;;;11.30;;
10651;SDS011;5374;42.742;23.266;2022-09-09T03:07:18;12.20;;;11.00;;
10651;SDS011;5374;42.742;23.266;2022-09-09T03:10:08;12.33;;;11.07;;
10651;SDS011;5374;42.742;23.266;2022-09-09T03:12:56;12.50;;;11.30;;
10651;SDS011;5374;42.742;23.266;2022-09-09T03:15:43;12.17;;;10.97;;
10651;SDS011;5374;42.742;23.266;2022-09-09T03:18:30;12.87;;;11.57;;
10651;SDS011;5374;42.742;23.266;2022-09-09T03:21:18;11.87;;;10.67;;
10651;SDS011;5374;42.742;23.266;2022-09-09T03:24:05;13.23;;;11.30;;
10651;SDS011;5374;42.742;23.266;2022-09-09T03:26:53;16.30;;;11.33;;
10651;SDS011;5374;42.742;23.266;2022-09-09T03:29:41;12.47;;;11.17;;
10651;SDS011;5374;42.742;23.266;2022-09-09T03:32:28;14.60;;;11.87;;
10651;SDS011;5374;42.742;23.266;2022-09-09T03:35:16;12.17;;;11.07;;
10651;SDS011;5374;42.742;23.266;2022-09-09T03:38:03;14.83;;;11.73;;
10651;SDS011;5374;42.742;23.266;2022-09-09T03:40:51;12.47;;;11.27;;
10651;SDS011;5374;42.742;23.266;2022-09-09T03:43:42;14.10;;;11.67;;
10651;SDS011;5374;42.742;23.266;2022-09-09T03:46:29;12.90;;;11.77;;
10651;SDS011;5374;42.742;23.266;2022-09-09T03:49:16;13.70;;;12.07;;
10651;SDS011;5374;42.742;23.266;2022-09-09T03:52:05;15.13;;;12.13;;
10651;SDS011;5374;42.742;23.266;2022-09-09T03:54:52;14.23;;;12.23;;
10651;SDS011;5374;42.742;23.266;2022-09-09T03:57:42;16.77;;;12.53;;
10651;SDS011;5374;42.742;23.266;2022-09-09T04:00:31;16.37;;;12.53;;
10651;SDS011;5374;42.742;23.266;2022-09-09T04:03:18;13.93;;;12.10;;
10651;SDS011;5374;42.742;23.266;2022-09-09T04:06:07;13.07;;;11.60;;
10651;SDS011;5374;42.742;23.266;2022-09-09T04:08:57;14.03;;;12.53;;
10651;SDS011;5374;42.742;23.266;2022-09-09T04:11:44;15.03;;;11.93;;
10651;SDS011;5374;42.742;23.266;2022-09-09T04:14:31;13.73;;;11.43;;
10651;SDS011;5374;42.742;23.266;2022-09-09T04:17:20;13.50;;;12.10;;
10651;SDS011;5374;42.742;23.266;2022-09-09T04:20:07;16.43;;;12.20;;
10651;SDS011;5374;42.742;23.266;2022-09-09T04:22:56;12.67;;;11.37;;
10651;SDS011;5374;42.742;23.266;2022-09-09T04:25:44;14.43;;;12.20;;
10651;SDS011;5374;42.742;23.266;2022-09-09T04:28:33;14.33;;;11.80;;
10651;SDS011;5374;42.742;23.266;2022-09-09T04:31:22;14.63;;;12.50;;
10651;SDS011;5374;42.742;23.266;2022-09-09T04:34:11;15.70;;;12.70;;
10651;SDS011;5374;42.742;23.266;2022-09-09T04:36:58;12.93;;;11.63;;
10651;SDS011;5374;42.742;23.266;2022-09-09T04:39:45;13.97;;;11.13;;
10651;SDS011;5374;42.742;23.266;2022-09-09T04:42:34;16.03;;;11.77;;
10651;SDS011;5374;42.742;23.266;2022-09-09T04:45:22;14.53;;;11.90;;
10651;SDS011;5374;42.742;23.266;2022-09-09T04:48:09;12.50;;;10.90;;
10651;SDS011;5374;42.742;23.266;2022-09-09T04:50:58;16.60;;;11.83;;
10651;SDS011;5374;42.742;23.266;2022-09-09T04:53:46;11.40;;;10.23;;
10651;SDS011;5374;42.742;23.266;2022-09-09T04:56:35;10.03;;;8.93;;
10651;SDS011;5374;42.742;23.266;2022-09-09T04:59:22;11.07;;;8.57;;
10651;SDS011;5374;42.742;23.266;2022-09-09T05:02:09;12.53;;;8.87;;
10651;SDS011;5374;42.742;23.266;2022-09-09T05:04:56;10.53;;;8.70;;
10651;SDS011;5374;42.742;23.266;2022-09-09T05:07:45;13.23;;;9.27;;
10651;SDS011;5374;42.742;23.266;2022-09-09T05:10:33;14.23;;;8.90;;
10651;SDS011;5374;42.742;23.266;2022-09-09T05:13:23;11.47;;;8.03;;
10651;SDS011;5374;42.742;23.266;2022-09-09T05:16:10;11.77;;;7.83;;
10651;SDS011;5374;42.742;23.266;2022-09-09T05:18:57;13.97;;;7.77;;
10651;SDS011;5374;42.742;23.266;2022-09-09T05:21:44;13.37;;;7.87;;
10651;SDS011;5374;42.742;23.266;2022-09-09T05:24:33;11.60;;;7.70;;
10651;SDS011;5374;42.742;23.266;2022-09-09T05:27:20;9.10;;;8.07;;
10651;SDS011;5374;42.742;23.266;2022-09-09T05:30:08;9.57;;;7.07;;
10651;SDS011;5374;42.742;23.266;2022-09-09T05:32:56;8.07;;;6.95;;
10651;SDS011;5374;42.742;23.266;2022-09-09T05:35:43;8.05;;;7.20;;
10651;SDS011;5374;42.742;23.266;2022-09-09T05:38:30;10.63;;;6.65;;
10651;SDS011;5374;42.742;23.266;2022-09-09T05:41:20;7.50;;;6.22;;
10651;SDS011;5374;42.742;23.266;2022-09-09T05:44:08;8.18;;;6.68;;
10651;SDS011;5374;42.742;23.266;2022-09-09T05:46:55;10.90;;;7.28;;
10651;SDS011;5374;42.742;23.266;2022-09-09T05:49:43;14.10;;;7.50;;
10651;SDS011;5374;42.742;23.266;2022-09-09T05:52:31;11.57;;;7.50;;
10651;SDS011;5374;42.742;23.266;2022-09-09T05:55:18;12.75;;;7.05;;
10651;SDS011;5374;42.742;23.266;2022-09-09T05:58:06;12.50;;;7.32;;
10651;SDS011;5374;42.742;23.266;2022-09-09T06:01:00;12.10;;;7.70;;
10651;SDS011;5374;42.742;23.266;2022-09-09T06:03:48;12.88;;;6.93;;
10651;SDS011;5374;42.742;23.266;2022-09-09T06:06:37;9.48;;;7.05;;
10651;SDS011;5374;42.742;23.266;2022-09-09T06:09:25;10.95;;;6.93;;
10651;SDS011;5374;42.742;23.266;2022-09-09T06:12:12;10.85;;;7.38;;
10651;SDS011;5374;42.742;23.266;2022-09-09T06:15:01;15.27;;;7.63;;
10651;SDS011;5374;42.742;23.266;2022-09-09T06:17:53;12.77;;;7.13;;
10651;SDS011;5374;42.742;23.266;2022-09-09T06:20:41;13.75;;;7.90;;
10651;SDS011;5374;42.742;23.266;2022-09-09T06:23:28;9.52;;;7.10;;
10651;SDS011;5374;42.742;23.266;2022-09-09T06:26:17;15.20;;;7.60;;
10651;SDS011;5374;42.742;23.266;2022-09-09T06:29:05;9.85;;;7.45;;
10651;SDS011;5374;42.742;23.266;2022-09-09T06:31:53;12.30;;;7.35;;
10651;SDS011;5374;42.742;23.266;2022-09-09T06:34:41;11.20;;;7.00;;
10651;SDS011;5374;42.742;23.266;2022-09-09T06:37:28;10.48;;;6.68;;
10651;SDS011;5374;42.742;23.266;2022-09-09T06:40:15;12.18;;;6.57;;
10651;SDS011;5374;42.742;23.266;2022-09-09T06:43:02;8.60;;;6.38;;
10651;SDS011;5374;42.742;23.266;2022-09-09T06:45:54;8.10;;;6.53;;
10651;SDS011;5374;42.742;23.266;2022-09-09T06:48:44;8.73;;;6.55;;
10651;SDS011;5374;42.742;23.266;2022-09-09T06:51:33;10.38;;;6.50;;
10651;SDS011;5374;42.742;23.266;2022-09-09T06:54:22;9.67;;;7.07;;
10651;SDS011;5374;42.742;23.266;2022-09-09T06:57:34;8.83;;;6.60;;
10651;SDS011;5374;42.742;23.266;2022-09-09T07:00:21;9.03;;;6.77;;
10651;SDS011;5374;42.742;23.266;2022-09-09T07:03:09;10.13;;;6.43;;
10651;SDS011;5374;42.742;23.266;2022-09-09T07:05:59;8.53;;;5.87;;
10651;SDS011;5374;42.742;23.266;2022-09-09T07:08:50;8.90;;;6.67;;
10651;SDS011;5374;42.742;23.266;2022-09-09T07:11:39;9.40;;;6.50;;
10651;SDS011;5374;42.742;23.266;2022-09-09T07:14:27;8.50;;;6.30;;
10651;SDS011;5374;42.742;23.266;2022-09-09T07:17:14;9.70;;;6.20;;
10651;SDS011;5374;42.742;23.266;2022-09-09T07:20:02;7.97;;;6.33;;
10651;SDS011;5374;42.742;23.266;2022-09-09T07:22:51;9.50;;;6.40;;
10651;SDS011;5374;42.742;23.266;2022-09-09T07:25:44;6.80;;;6.07;;
10651;SDS011;5374;42.742;23.266;2022-09-09T07:28:31;13.77;;;6.37;;
10651;SDS011;5374;42.742;23.266;2022-09-09T07:31:20;8.40;;;6.30;;
10651;SDS011;5374;42.742;23.266;2022-09-09T07:34:09;10.20;;;7.00;;
10651;SDS011;5374;42.742;23.266;2022-09-09T07:36:56;8.13;;;6.23;;
10651;SDS011;5374;42.742;23.266;2022-09-09T07:39:45;7.67;;;6.50;;
10651;SDS011;5374;42.742;23.266;2022-09-09T07:42:32;10.77;;;6.60;;
10651;SDS011;5374;42.742;23.266;2022-09-09T07:45:19;9.33;;;6.13;;
10651;SDS011;5374;42.742;23.266;2022-09-09T07:48:06;9.17;;;5.97;;
10651;SDS011;5374;42.742;23.266;2022-09-09T07:51:02;7.53;;;6.13;;
10651;SDS011;5374;42.742;23.266;2022-09-09T07:53:54;6.30;;;5.70;;
10651;SDS011;5374;42.742;23.266;2022-09-09T07:56:45;7.83;;;5.90;;
10651;SDS011;5374;42.742;23.266;2022-09-09T07:59:35;9.67;;;6.07;;
10651;SDS011;5374;42.742;23.266;2022-09-09T08:02:23;7.13;;;6.20;;
10651;SDS011;5374;42.742;23.266;2022-09-09T08:05:10;10.10;;;6.17;;
10651;SDS011;5374;42.742;23.266;2022-09-09T08:07:58;8.33;;;5.93;;
10651;SDS011;5374;42.742;23.266;2022-09-09T08:10:45;11.73;;;5.90;;
10651;SDS011;5374;42.742;23.266;2022-09-09T08:13:34;9.57;;;5.97;;
10651;SDS011;5374;42.742;23.266;2022-09-09T08:16:22;13.13;;;6.50;;
10651;SDS011;5374;42.742;23.266;2022-09-09T08:19:11;9.33;;;6.40;;
10651;SDS011;5374;42.742;23.266;2022-09-09T08:22:00;11.07;;;6.50;;
10651;SDS011;5374;42.742;23.266;2022-09-09T08:24:48;13.30;;;6.67;;
10651;SDS011;5374;42.742;23.266;2022-09-09T08:27:35;9.47;;;6.07;;
10651;SDS011;5374;42.742;23.266;2022-09-09T08:30:24;11.40;;;6.43;;
10651;SDS011;5374;42.742;23.266;2022-09-09T08:33:12;14.27;;;6.20;;
10651;SDS011;5374;42.742;23.266;2022-09-09T08:35:59;10.33;;;6.67;;
10651;SDS011;5374;42.742;23.266;2022-09-09T08:38:47;8.43;;;5.73;;
10651;SDS011;5374;42.742;23.266;2022-09-09T08:41:51;9.87;;;6.07;;
10651;SDS011;5374;42.742;23.266;2022-09-09T08:45:02;7.73;;;5.83;;
10651;SDS011;5374;42.742;23.266;2022-09-09T08:48:03;9.17;;;5.90;;
10651;SDS011;5374;42.742;23.266;2022-09-09T08:51:01;10.70;;;6.23;;
10651;SDS011;5374;42.742;23.266;2022-09-09T08:53:52;10.80;;;6.00;;
10651;SDS011;5374;42.742;23.266;2022-09-09T08:56:44;8.33;;;5.87;;
10651;SDS011;5374;42.742;23.266;2022-09-09T08:59:32;9.60;;;6.40;;
10651;SDS011;5374;42.742;23.266;2022-09-09T09:02:21;9.33;;;6.10;;
10651;SDS011;5374;42.742;23.266;2022-09-09T09:05:17;7.43;;;6.00;;
10651;SDS011;5374;42.742;23.266;2022-09-09T09:08:12;10.00;;;6.63;;
10651;SDS011;5374;42.742;23.266;2022-09-09T09:11:07;13.00;;;6.43;;
10651;SDS011;5374;42.742;23.266;2022-09-09T09:13:56;11.13;;;6.43;;
10651;SDS011;5374;42.742;23.266;2022-09-09T09:16:51;9.70;;;6.10;;
10651;SDS011;5374;42.742;23.266;2022-09-09T09:19:41;10.77;;;6.80;;
10651;SDS011;5374;42.742;23.266;2022-09-09T09:22:33;8.53;;;6.23;;
10651;SDS011;5374;42.742;23.266;2022-09-09T09:25:31;12.73;;;6.13;;
10651;SDS011;5374;42.742;23.266;2022-09-09T09:28:22;10.73;;;6.73;;
10651;SDS011;5374;42.742;23.266;2022-09-09T09:31:11;10.87;;;6.40;;
10651;SDS011;5374;42.742;23.266;2022-09-09T09:34:02;8.57;;;5.77;;
10651;SDS011;5374;42.742;23.266;2022-09-09T09:36:52;8.73;;;5.90;;
10651;SDS011;5374;42.742;23.266;2022-09-09T09:39:42;8.03;;;6.60;;
10651;SDS011;5374;42.742;23.266;2022-09-09T09:42:30;10.67;;;5.97;;
10651;SDS011;5374;42.742;23.266;2022-09-09T09:45:20;13.70;;;8.30;;
10651;SDS011;5374;42.742;23.266;2022-09-09T09:48:16;12.47;;;6.90;;
10651;SDS011;5374;42.742;23.266;2022-09-09T09:51:05;11.07;;;7.00;;
10651;SDS011;5374;42.742;23.266;2022-09-09T09:54:03;12.37;;;7.30;;
10651;SDS011;5374;42.742;23.266;2022-09-09T09:56:58;8.30;;;6.80;;
10651;SDS011;5374;42.742;23.266;2022-09-09T10:00:03;9.53;;;6.50;;
10651;SDS011;5374;42.742;23.266;2022-09-09T10:02:59;8.77;;;6.43;;
10651;SDS011;5374;42.742;23.266;2022-09-09T10:05:51;9.60;;;6.57;;
10651;SDS011;5374;42.742;23.266;2022-09-09T10:08:44;9.93;;;7.33;;
10651;SDS011;5374;42.742;23.266;2022-09-09T10:11:39;7.07;;;6.37;;
10651;SDS011;5374;42.742;23.266;2022-09-09T10:14:33;10.10;;;7.37;;
10651;SDS011;5374;42.742;23.266;2022-09-09T10:17:30;12.00;;;7.10;;
10651;SDS011;5374;42.742;23.266;2022-09-09T10:20:28;11.17;;;7.67;;
10651;SDS011;5374;42.742;23.266;2022-09-09T10:23:28;7.80;;;7.00;;
10651;SDS011;5374;42.742;23.266;2022-09-09T10:26:32;9.73;;;7.20;;
10651;SDS011;5374;42.742;23.266;2022-09-09T10:32:52;14.57;;;7.47;;
10651;SDS011;5374;42.742;23.266;2022-09-09T10:35:49;9.37;;;6.60;;
10651;SDS011;5374;42.742;23.266;2022-09-09T10:38:46;9.43;;;7.03;;
10651;SDS011;5374;42.742;23.266;2022-09-09T10:41:38;12.57;;;7.50;;
10651;SDS011;5374;42.742;23.266;2022-09-09T10:44:40;10.63;;;7.07;;
10651;SDS011;5374;42.742;23.266;2022-09-09T10:47:57;10.57;;;6.70;;
10651;SDS011;5374;42.742;23.266;2022-09-09T10:50:55;9.30;;;6.93;;
10651;SDS011;5374;42.742;23.266;2022-09-09T10:53:52;7.70;;;6.90;;
10651;SDS011;5374;42.742;23.266;2022-09-09T10:56:54;13.30;;;10.67;;
10651;SDS011;5374;42.742;23.266;2022-09-09T10:59:47;11.17;;;7.77;;
10651;SDS011;5374;42.742;23.266;2022-09-09T11:02:38;13.37;;;7.43;;
10651;SDS011;5374;42.742;23.266;2022-09-09T11:05:30;8.80;;;6.83;;
10651;SDS011;5374;42.742;23.266;2022-09-09T11:08:23;9.63;;;6.87;;
10651;SDS011;5374;42.742;23.266;2022-09-09T11:11:13;9.77;;;7.10;;
10651;SDS011;5374;42.742;23.266;2022-09-09T11:14:09;9.27;;;7.73;;
10651;SDS011;5374;42.742;23.266;2022-09-09T11:17:03;10.00;;;7.67;;
10651;SDS011;5374;42.742;23.266;2022-09-09T11:19:54;8.83;;;6.90;;
10651;SDS011;5374;42.742;23.266;2022-09-09T11:22:44;9.10;;;6.60;;
10651;SDS011;5374;42.742;23.266;2022-09-09T11:25:35;10.13;;;8.07;;
10651;SDS011;5374;42.742;23.266;2022-09-09T11:28:29;10.20;;;9.10;;
10651;SDS011;5374;42.742;23.266;2022-09-09T11:31:33;21.13;;;15.73;;
10651;SDS011;5374;42.742;23.266;2022-09-09T11:34:35;8.63;;;7.73;;
10651;SDS011;5374;42.742;23.266;2022-09-09T11:37:37;7.83;;;7.03;;
10651;SDS011;5374;42.742;23.266;2022-09-09T11:40:40;9.57;;;6.73;;
10651;SDS011;5374;42.742;23.266;2022-09-09T11:43:30;8.23;;;6.67;;
10651;SDS011;5374;42.742;23.266;2022-09-09T11:46:20;9.37;;;6.67;;
10651;SDS011;5374;42.742;23.266;2022-09-09T11:49:26;10.43;;;6.70;;
10651;SDS011;5374;42.742;23.266;2022-09-09T11:52:20;7.47;;;6.77;;
10651;SDS011;5374;42.742;23.266;2022-09-09T11:55:24;9.30;;;6.83;;
10651;SDS011;5374;42.742;23.266;2022-09-09T11:58:16;7.60;;;6.90;;
10651;SDS011;5374;42.742;23.266;2022-09-09T12:01:15;9.37;;;7.00;;
10651;SDS011;5374;42.742;23.266;2022-09-09T12:04:17;8.23;;;7.07;;
10651;SDS011;5374;42.742;23.266;2022-09-09T12:07:25;10.70;;;7.50;;
10651;SDS011;5374;42.742;23.266;2022-09-09T12:10:23;16.77;;;11.87;;
10651;SDS011;5374;42.742;23.266;2022-09-09T12:13:15;10.57;;;8.83;;
10651;SDS011;5374;42.742;23.266;2022-09-09T12:16:04;10.70;;;7.30;;
10651;SDS011;5374;42.742;23.266;2022-09-09T12:18:51;11.77;;;7.73;;
10651;SDS011;5374;42.742;23.266;2022-09-09T12:21:57;9.43;;;7.70;;
10651;SDS011;5374;42.742;23.266;2022-09-09T12:24:52;8.87;;;7.13;;
10651;SDS011;5374;42.742;23.266;2022-09-09T12:27:49;8.00;;;7.20;;
10651;SDS011;5374;42.742;23.266;2022-09-09T12:30:49;10.20;;;7.40;;
10651;SDS011;5374;42.742;23.266;2022-09-09T12:33:43;9.73;;;7.90;;
10651;SDS011;5374;42.742;23.266;2022-09-09T12:36:32;8.77;;;7.57;;
10651;SDS011;5374;42.742;23.266;2022-09-09T12:39:22;12.20;;;7.50;;
10651;SDS011;5374;42.742;23.266;2022-09-09T12:42:20;8.97;;;7.80;;
10651;SDS011;5374;42.742;23.266;2022-09-09T12:45:16;8.30;;;7.27;;
10651;SDS011;5374;42.742;23.266;2022-09-09T12:48:06;9.50;;;7.77;;
10651;SDS011;5374;42.742;23.266;2022-09-09T12:50:57;11.33;;;7.67;;
10651;SDS011;5374;42.742;23.266;2022-09-09T12:53:45;11.70;;;7.87;;
10651;SDS011;5374;42.742;23.266;2022-09-09T12:56:33;9.67;;;8.57;;
10651;SDS011;5374;42.742;23.266;2022-09-09T12:59:22;10.60;;;7.67;;
10651;SDS011;5374;42.742;23.266;2022-09-09T13:02:16;8.57;;;6.43;;
10651;SDS011;5374;42.742;23.266;2022-09-09T13:05:13;6.83;;;5.93;;
10651;SDS011;5374;42.742;23.266;2022-09-09T13:08:03;10.90;;;6.40;;
10651;SDS011;5374;42.742;23.266;2022-09-09T13:10:54;7.93;;;5.90;;
10651;SDS011;5374;42.742;23.266;2022-09-09T13:13:50;8.53;;;6.30;;
10651;SDS011;5374;42.742;23.266;2022-09-09T13:16:39;10.40;;;5.93;;
10651;SDS011;5374;42.742;23.266;2022-09-09T13:19:27;10.30;;;6.03;;
10651;SDS011;5374;42.742;23.266;2022-09-09T13:22:19;8.93;;;5.57;;
10651;SDS011;5374;42.742;23.266;2022-09-09T13:25:17;9.77;;;6.20;;
10651;SDS011;5374;42.742;23.266;2022-09-09T13:28:19;11.67;;;6.13;;
10651;SDS011;5374;42.742;23.266;2022-09-09T13:31:19;11.47;;;6.00;;
10651;SDS011;5374;42.742;23.266;2022-09-09T13:34:11;9.70;;;6.17;;
10651;SDS011;5374;42.742;23.266;2022-09-09T13:37:01;10.47;;;7.57;;
10651;SDS011;5374;42.742;23.266;2022-09-09T13:39:51;10.73;;;6.53;;
10651;SDS011;5374;42.742;23.266;2022-09-09T13:42:40;9.03;;;6.37;;
10651;SDS011;5374;42.742;23.266;2022-09-09T13:45:28;8.23;;;5.83;;
10651;SDS011;5374;42.742;23.266;2022-09-09T13:48:17;9.47;;;5.87;;
10651;SDS011;5374;42.742;23.266;2022-09-09T13:54:14;6.77;;;6.10;;
10651;SDS011;5374;42.742;23.266;2022-09-09T13:57:03;11.57;;;6.27;;
10651;SDS011;5374;42.742;23.266;2022-09-09T13:59:51;9.00;;;5.93;;
10651;SDS011;5374;42.742;23.266;2022-09-09T14:02:44;7.40;;;5.77;;
10651;SDS011;5374;42.742;23.266;2022-09-09T14:05:32;7.53;;;5.83;;
10651;SDS011;5374;42.742;23.266;2022-09-09T14:08:24;8.97;;;6.00;;
10651;SDS011;5374;42.742;23.266;2022-09-09T14:11:15;8.90;;;6.17;;
10651;SDS011;5374;42.742;23.266;2022-09-09T14:14:03;9.17;;;5.37;;
10651;SDS011;5374;42.742;23.266;2022-09-09T14:16:50;7.67;;;5.60;;
10651;SDS011;5374;42.742;23.266;2022-09-09T14:19:37;7.33;;;5.13;;
10651;SDS011;5374;42.742;23.266;2022-09-09T14:22:24;10.90;;;5.67;;
10651;SDS011;5374;42.742;23.266;2022-09-09T14:25:12;8.47;;;6.17;;
10651;SDS011;5374;42.742;23.266;2022-09-09T14:28:01;7.17;;;5.50;;
10651;SDS011;5374;42.742;23.266;2022-09-09T14:30:48;6.60;;;5.40;;
10651;SDS011;5374;42.742;23.266;2022-09-09T14:33:35;12.13;;;5.90;;
10651;SDS011;5374;42.742;23.266;2022-09-09T14:36:22;10.37;;;6.27;;
10651;SDS011;5374;42.742;23.266;2022-09-09T14:39:10;13.80;;;5.90;;
10651;SDS011;5374;42.742;23.266;2022-09-09T14:41:57;8.53;;;6.40;;
10651;SDS011;5374;42.742;23.266;2022-09-09T14:44:46;11.73;;;5.93;;
10651;SDS011;5374;42.742;23.266;2022-09-09T14:47:33;8.60;;;6.30;;
10651;SDS011;5374;42.742;23.266;2022-09-09T14:50:21;6.90;;;5.47;;
10651;SDS011;5374;42.742;23.266;2022-09-09T14:53:09;7.40;;;5.30;;
10651;SDS011;5374;42.742;23.266;2022-09-09T14:56:02;9.37;;;6.10;;
10651;SDS011;5374;42.742;23.266;2022-09-09T14:58:50;7.70;;;5.57;;
10651;SDS011;5374;42.742;23.266;2022-09-09T15:01:40;8.40;;;5.50;;
10651;SDS011;5374;42.742;23.266;2022-09-09T15:04:27;13.13;;;5.70;;
10651;SDS011;5374;42.742;23.266;2022-09-09T15:07:15;10.07;;;5.20;;
10651;SDS011;5374;42.742;23.266;2022-09-09T15:10:02;8.47;;;5.90;;
10651;SDS011;5374;42.742;23.266;2022-09-09T15:12:50;11.20;;;6.27;;
10651;SDS011;5374;42.742;23.266;2022-09-09T15:15:37;12.30;;;5.83;;
10651;SDS011;5374;42.742;23.266;2022-09-09T15:18:26;13.30;;;5.60;;
10651;SDS011;5374;42.742;23.266;2022-09-09T15:21:14;12.10;;;5.73;;
10651;SDS011;5374;42.742;23.266;2022-09-09T15:24:04;6.57;;;5.30;;
10651;SDS011;5374;42.742;23.266;2022-09-09T15:26:53;8.97;;;5.63;;
10651;SDS011;5374;42.742;23.266;2022-09-09T15:29:42;8.80;;;5.50;;
10651;SDS011;5374;42.742;23.266;2022-09-09T15:32:29;8.90;;;6.90;;
10651;SDS011;5374;42.742;23.266;2022-09-09T15:35:19;10.67;;;6.20;;
10651;SDS011;5374;42.742;23.266;2022-09-09T15:38:06;8.93;;;5.30;;
10651;SDS011;5374;42.742;23.266;2022-09-09T15:40:53;7.47;;;5.67;;
10651;SDS011;5374;42.742;23.266;2022-09-09T15:43:43;9.77;;;6.43;;
10651;SDS011;5374;42.742;23.266;2022-09-09T15:46:31;11.90;;;7.10;;
10651;SDS011;5374;42.742;23.266;2022-09-09T15:49:22;10.87;;;6.47;;
10651;SDS011;5374;42.742;23.266;2022-09-09T15:52:12;9.77;;;6.10;;
10651;SDS011;5374;42.742;23.266;2022-09-09T15:54:59;9.47;;;6.37;;
10651;SDS011;5374;42.742;23.266;2022-09-09T15:57:46;10.90;;;6.87;;
10651;SDS011;5374;42.742;23.266;2022-09-09T16:00:34;8.70;;;7.70;;
10651;SDS011;5374;42.742;23.266;2022-09-09T16:03:21;13.83;;;9.07;;
10651;SDS011;5374;42.742;23.266;2022-09-09T16:06:08;10.57;;;8.40;;
10651;SDS011;5374;42.742;23.266;2022-09-09T16:08:57;12.07;;;7.10;;
10651;SDS011;5374;42.742;23.266;2022-09-09T16:11:46;12.93;;;7.37;;
10651;SDS011;5374;42.742;23.266;2022-09-09T16:14:34;10.97;;;6.93;;
10651;SDS011;5374;42.742;23.266;2022-09-09T16:17:21;10.93;;;7.43;;
10651;SDS011;5374;42.742;23.266;2022-09-09T16:20:08;14.57;;;7.10;;
10651;SDS011;5374;42.742;23.266;2022-09-09T16:22:57;9.13;;;6.90;;
10651;SDS011;5374;42.742;23.266;2022-09-09T16:25:53;10.97;;;7.17;;
10651;SDS011;5374;42.742;23.266;2022-09-09T16:28:41;11.07;;;7.87;;
10651;SDS011;5374;42.742;23.266;2022-09-09T16:31:29;13.00;;;7.43;;
10651;SDS011;5374;42.742;23.266;2022-09-09T16:34:17;13.20;;;7.63;;
10651;SDS011;5374;42.742;23.266;2022-09-09T16:37:05;13.13;;;6.60;;
10651;SDS011;5374;42.742;23.266;2022-09-09T16:39:52;10.03;;;6.60;;
10651;SDS011;5374;42.742;23.266;2022-09-09T16:42:41;10.13;;;6.63;;
10651;SDS011;5374;42.742;23.266;2022-09-09T16:45:28;9.77;;;6.53;;
10651;SDS011;5374;42.742;23.266;2022-09-09T16:48:16;10.73;;;6.60;;
10651;SDS011;5374;42.742;23.266;2022-09-09T16:51:03;10.13;;;6.40;;
10651;SDS011;5374;42.742;23.266;2022-09-09T16:53:52;12.43;;;6.77;;
10651;SDS011;5374;42.742;23.266;2022-09-09T16:56:41;12.50;;;7.83;;
10651;SDS011;5374;42.742;23.266;2022-09-09T16:59:31;16.60;;;9.17;;
10651;SDS011;5374;42.742;23.266;2022-09-09T17:02:18;14.30;;;8.10;;